sensor_id;sensor_type;location;lat;lon;timestamp;P1;durP1;ratioP1;P2;durP2;ratioP2
66020;SDS011;52789;59.980;30.346;2022-07-10T11:21:22;5.05;;;4.53;;
66020;SDS011;52789;59.980;30.346;2022-07-10T11:26:36;8.57;;;5.50;;
66020;SDS011;52789;59.980;30.346;2022-07-10T11:29:17;9.55;;;5.00;;
66020;SDS011;52789;59.980;30.346;2022-07-10T11:31:43;9.90;;;6.18;;
66020;SDS011;52789;59.980;30.346;2022-07-10T11:34:17;10.98;;;6.43;;
66020;SDS011;52789;59.980;30.346;2022-07-10T11:36:43;13.02;;;5.47;;
66020;SDS011;52789;59.980;30.346;2022-07-10T11:39:08;5.30;;;4.75;;
66020;SDS011;52789;59.980;30.346;2022-07-10T11:41:41;7.13;;;5.18;;
66020;SDS011;52789;59.980;30.346;2022-07-10T11:44:12;5.88;;;5.32;;
66020;SDS011;52789;59.980;30.346;2022-07-10T11:46:39;4.97;;;4.47;;
66020;SDS011;52789;59.980;30.346;2022-07-10T11:49:05;6.18;;;4.80;;
66020;SDS011;52789;59.980;30.346;2022-07-10T11:51:33;7.35;;;4.82;;
66020;SDS011;52789;59.980;30.346;2022-07-10T11:54:05;9.07;;;5.45;;
66020;SDS011;52789;59.980;30.346;2022-07-10T11:56:39;6.30;;;5.72;;
66020;SDS011;52789;59.980;30.346;2022-07-10T11:59:07;5.07;;;4.57;;
66020;SDS011;52789;59.980;30.346;2022-07-10T12:01:39;4.82;;;4.43;;
66020;SDS011;52789;59.980;30.346;2022-07-10T12:04:09;6.93;;;4.75;;
66020;SDS011;52789;59.980;30.346;2022-07-10T12:06:37;4.13;;;3.72;;
66020;SDS011;52789;59.980;30.346;2022-07-10T12:09:08;30.88;;;9.57;;
66020;SDS011;52789;59.980;30.346;2022-07-10T12:11:35;5.18;;;3.03;;
66020;SDS011;52789;59.980;30.346;2022-07-10T12:16:42;26.38;;;9.65;;
66020;SDS011;52789;59.980;30.346;2022-07-10T12:19:10;6.35;;;3.30;;
66020;SDS011;52789;59.980;30.346;2022-07-10T12:21:42;3.67;;;3.38;;
66020;SDS011;52789;59.980;30.346;2022-07-10T12:24:10;7.85;;;3.90;;
66020;SDS011;52789;59.980;30.346;2022-07-10T12:26:38;3.95;;;3.63;;
66020;SDS011;52789;59.980;30.346;2022-07-10T12:29:05;4.78;;;4.38;;
66020;SDS011;52789;59.980;30.346;2022-07-10T12:31:34;4.88;;;3.67;;
66020;SDS011;52789;59.980;30.346;2022-07-10T12:34:03;6.55;;;4.57;;
66020;SDS011;52789;59.980;30.346;2022-07-10T12:39:10;5.03;;;3.65;;
66020;SDS011;52789;59.980;30.346;2022-07-10T12:41:52;4.95;;;4.38;;
66020;SDS011;52789;59.980;30.346;2022-07-10T12:47:05;6.10;;;4.35;;
66020;SDS011;52789;59.980;30.346;2022-07-10T12:52:22;4.63;;;3.28;;
66020;SDS011;52789;59.980;30.346;2022-07-10T12:54:48;5.15;;;4.18;;
66020;SDS011;52789;59.980;30.346;2022-07-10T12:57:14;5.55;;;3.17;;
66020;SDS011;52789;59.980;30.346;2022-07-10T12:59:39;2.97;;;2.67;;
66020;SDS011;52789;59.980;30.346;2022-07-10T13:02:19;3.88;;;2.83;;
66020;SDS011;52789;59.980;30.346;2022-07-10T13:04:56;3.65;;;2.60;;
66020;SDS011;52789;59.980;30.346;2022-07-10T13:07:29;9.38;;;3.60;;
66020;SDS011;52789;59.980;30.346;2022-07-10T13:10:02;8.98;;;4.88;;
66020;SDS011;52789;59.980;30.346;2022-07-10T13:12:29;8.10;;;3.58;;
66020;SDS011;52789;59.980;30.346;2022-07-10T13:14:55;6.95;;;4.32;;
66020;SDS011;52789;59.980;30.346;2022-07-10T13:17:20;3.45;;;3.03;;
66020;SDS011;52789;59.980;30.346;2022-07-10T13:19:47;6.95;;;3.53;;
66020;SDS011;52789;59.980;30.346;2022-07-10T13:22:13;8.77;;;4.20;;
66020;SDS011;52789;59.980;30.346;2022-07-10T13:24:39;8.68;;;3.38;;
66020;SDS011;52789;59.980;30.346;2022-07-10T13:27:05;5.30;;;3.58;;
66020;SDS011;52789;59.980;30.346;2022-07-10T13:29:32;5.55;;;3.42;;
66020;SDS011;52789;59.980;30.346;2022-07-10T13:31:57;4.38;;;3.85;;
66020;SDS011;52789;59.980;30.346;2022-07-10T13:34:23;4.35;;;3.95;;
66020;SDS011;52789;59.980;30.346;2022-07-10T13:36:48;3.95;;;3.53;;
66020;SDS011;52789;59.980;30.346;2022-07-10T13:39:15;5.18;;;4.22;;
66020;SDS011;52789;59.980;30.346;2022-07-10T13:41:41;6.25;;;4.40;;
66020;SDS011;52789;59.980;30.346;2022-07-10T13:44:06;5.32;;;4.40;;
66020;SDS011;52789;59.980;30.346;2022-07-10T13:46:32;4.97;;;4.35;;
66020;SDS011;52789;59.980;30.346;2022-07-10T13:48:57;14.38;;;5.57;;
66020;SDS011;52789;59.980;30.346;2022-07-10T13:51:23;6.32;;;3.80;;
66020;SDS011;52789;59.980;30.346;2022-07-10T13:53:49;9.38;;;4.32;;
66020;SDS011;52789;59.980;30.346;2022-07-10T13:56:14;3.92;;;3.33;;
66020;SDS011;52789;59.980;30.346;2022-07-10T13:58:40;5.30;;;3.15;;
66020;SDS011;52789;59.980;30.346;2022-07-10T14:01:06;3.85;;;3.35;;
66020;SDS011;52789;59.980;30.346;2022-07-10T14:03:31;3.67;;;2.88;;
66020;SDS011;52789;59.980;30.346;2022-07-10T14:05:57;9.68;;;3.38;;
66020;SDS011;52789;59.980;30.346;2022-07-10T14:08:23;5.00;;;2.80;;
66020;SDS011;52789;59.980;30.346;2022-07-10T14:10:49;5.07;;;3.42;;
66020;SDS011;52789;59.980;30.346;2022-07-10T14:13:15;3.85;;;2.40;;
66020;SDS011;52789;59.980;30.346;2022-07-10T14:15:41;5.25;;;2.60;;
66020;SDS011;52789;59.980;30.346;2022-07-10T14:18:09;2.50;;;1.80;;
66020;SDS011;52789;59.980;30.346;2022-07-10T14:20:38;3.08;;;2.60;;
66020;SDS011;52789;59.980;30.346;2022-07-10T14:23:22;6.18;;;2.55;;
66020;SDS011;52789;59.980;30.346;2022-07-10T14:25:48;3.58;;;1.75;;
66020;SDS011;52789;59.980;30.346;2022-07-10T14:28:14;2.03;;;1.70;;
66020;SDS011;52789;59.980;30.346;2022-07-10T14:30:42;3.17;;;2.17;;
66020;SDS011;52789;59.980;30.346;2022-07-10T14:33:08;2.80;;;2.05;;
66020;SDS011;52789;59.980;30.346;2022-07-10T14:35:34;3.25;;;2.30;;
66020;SDS011;52789;59.980;30.346;2022-07-10T14:37:59;4.22;;;1.80;;
66020;SDS011;52789;59.980;30.346;2022-07-10T14:40:25;5.30;;;2.40;;
66020;SDS011;52789;59.980;30.346;2022-07-10T14:42:50;6.63;;;2.00;;
66020;SDS011;52789;59.980;30.346;2022-07-10T14:45:16;7.47;;;4.57;;
66020;SDS011;52789;59.980;30.346;2022-07-10T14:47:41;4.15;;;2.78;;
66020;SDS011;52789;59.980;30.346;2022-07-10T14:50:07;6.35;;;2.88;;
66020;SDS011;52789;59.980;30.346;2022-07-10T14:52:32;3.45;;;2.50;;
66020;SDS011;52789;59.980;30.346;2022-07-10T14:54:58;4.38;;;3.25;;
66020;SDS011;52789;59.980;30.346;2022-07-10T14:57:27;6.07;;;2.38;;
66020;SDS011;52789;59.980;30.346;2022-07-10T14:59:53;3.47;;;2.35;;
66020;SDS011;52789;59.980;30.346;2022-07-10T15:02:19;5.88;;;2.80;;
66020;SDS011;52789;59.980;30.346;2022-07-10T15:04:44;3.58;;;2.60;;
66020;SDS011;52789;59.980;30.346;2022-07-10T15:07:09;3.80;;;2.95;;
66020;SDS011;52789;59.980;30.346;2022-07-10T15:09:35;4.57;;;3.50;;
66020;SDS011;52789;59.980;30.346;2022-07-10T15:12:01;5.97;;;3.83;;
66020;SDS011;52789;59.980;30.346;2022-07-10T15:14:27;8.90;;;3.25;;
66020;SDS011;52789;59.980;30.346;2022-07-10T15:16:53;3.67;;;3.38;;
66020;SDS011;52789;59.980;30.346;2022-07-10T15:19:19;4.75;;;3.10;;
66020;SDS011;52789;59.980;30.346;2022-07-10T15:21:46;3.08;;;2.50;;
66020;SDS011;52789;59.980;30.346;2022-07-10T15:24:12;4.60;;;3.67;;
66020;SDS011;52789;59.980;30.346;2022-07-10T15:26:38;5.32;;;3.13;;
66020;SDS011;52789;59.980;30.346;2022-07-10T15:29:03;5.35;;;3.78;;
66020;SDS011;52789;59.980;30.346;2022-07-10T15:31:29;4.85;;;3.60;;
66020;SDS011;52789;59.980;30.346;2022-07-10T15:33:54;3.60;;;3.22;;
66020;SDS011;52789;59.980;30.346;2022-07-10T15:36:20;4.85;;;3.70;;
66020;SDS011;52789;59.980;30.346;2022-07-10T15:38:46;7.82;;;4.72;;
66020;SDS011;52789;59.980;30.346;2022-07-10T15:41:12;6.63;;;4.13;;
66020;SDS011;52789;59.980;30.346;2022-07-10T15:43:37;9.50;;;4.47;;
66020;SDS011;52789;59.980;30.346;2022-07-10T15:46:04;5.03;;;3.88;;
66020;SDS011;52789;59.980;30.346;2022-07-10T15:48:30;6.20;;;3.90;;
66020;SDS011;52789;59.980;30.346;2022-07-10T15:50:56;5.18;;;3.80;;
66020;SDS011;52789;59.980;30.346;2022-07-10T15:53:21;5.07;;;3.70;;
66020;SDS011;52789;59.980;30.346;2022-07-10T15:55:47;5.28;;;3.80;;
66020;SDS011;52789;59.980;30.346;2022-07-10T15:58:13;8.25;;;6.65;;
66020;SDS011;52789;59.980;30.346;2022-07-10T16:00:38;5.10;;;3.72;;
66020;SDS011;52789;59.980;30.346;2022-07-10T16:03:04;4.07;;;3.28;;
66020;SDS011;52789;59.980;30.346;2022-07-10T16:05:29;3.58;;;2.80;;
66020;SDS011;52789;59.980;30.346;2022-07-10T16:07:55;4.05;;;3.28;;
66020;SDS011;52789;59.980;30.346;2022-07-10T16:10:20;3.78;;;3.15;;
66020;SDS011;52789;59.980;30.346;2022-07-10T16:12:46;5.53;;;4.43;;
66020;SDS011;52789;59.980;30.346;2022-07-10T16:15:11;5.07;;;3.20;;
66020;SDS011;52789;59.980;30.346;2022-07-10T16:17:37;10.75;;;3.70;;
66020;SDS011;52789;59.980;30.346;2022-07-10T16:20:02;3.47;;;2.85;;
66020;SDS011;52789;59.980;30.346;2022-07-10T16:22:53;6.15;;;3.47;;
66020;SDS011;52789;59.980;30.346;2022-07-10T16:25:19;3.58;;;3.28;;
66020;SDS011;52789;59.980;30.346;2022-07-10T16:28:09;4.13;;;3.70;;
66020;SDS011;52789;59.980;30.346;2022-07-10T16:30:34;5.18;;;4.68;;
66020;SDS011;52789;59.980;30.346;2022-07-10T16:33:00;5.70;;;3.10;;
66020;SDS011;52789;59.980;30.346;2022-07-10T16:35:25;5.88;;;3.08;;
66020;SDS011;52789;59.980;30.346;2022-07-10T16:37:51;3.88;;;3.40;;
66020;SDS011;52789;59.980;30.346;2022-07-10T16:40:16;5.25;;;4.75;;
66020;SDS011;52789;59.980;30.346;2022-07-10T16:42:42;4.30;;;3.88;;
66020;SDS011;52789;59.980;30.346;2022-07-10T16:45:07;6.95;;;3.63;;
66020;SDS011;52789;59.980;30.346;2022-07-10T16:47:33;4.32;;;3.88;;
66020;SDS011;52789;59.980;30.346;2022-07-10T16:49:59;3.45;;;3.05;;
66020;SDS011;52789;59.980;30.346;2022-07-10T16:52:24;5.55;;;4.15;;
66020;SDS011;52789;59.980;30.346;2022-07-10T16:54:50;4.10;;;3.75;;
66020;SDS011;52789;59.980;30.346;2022-07-10T16:57:16;3.55;;;3.10;;
66020;SDS011;52789;59.980;30.346;2022-07-10T16:59:42;5.90;;;3.10;;
66020;SDS011;52789;59.980;30.346;2022-07-10T17:02:07;3.40;;;3.10;;
66020;SDS011;52789;59.980;30.346;2022-07-10T17:04:32;6.07;;;2.97;;
66020;SDS011;52789;59.980;30.346;2022-07-10T17:09:30;4.90;;;3.63;;
66020;SDS011;52789;59.980;30.346;2022-07-10T17:11:56;4.07;;;3.17;;
66020;SDS011;52789;59.980;30.346;2022-07-10T17:14:22;4.95;;;4.03;;
66020;SDS011;52789;59.980;30.346;2022-07-10T17:16:47;5.75;;;4.22;;
66020;SDS011;52789;59.980;30.346;2022-07-10T17:19:13;5.18;;;3.75;;
66020;SDS011;52789;59.980;30.346;2022-07-10T17:21:41;4.35;;;3.33;;
66020;SDS011;52789;59.980;30.346;2022-07-10T17:24:07;4.57;;;3.13;;
66020;SDS011;52789;59.980;30.346;2022-07-10T17:26:33;6.07;;;3.53;;
66020;SDS011;52789;59.980;30.346;2022-07-10T17:28:59;3.47;;;2.75;;
66020;SDS011;52789;59.980;30.346;2022-07-10T17:31:25;4.07;;;2.97;;
66020;SDS011;52789;59.980;30.346;2022-07-10T17:33:50;4.47;;;3.60;;
66020;SDS011;52789;59.980;30.346;2022-07-10T17:36:17;5.85;;;3.72;;
66020;SDS011;52789;59.980;30.346;2022-07-10T17:38:42;5.88;;;4.22;;
66020;SDS011;52789;59.980;30.346;2022-07-10T17:41:08;3.90;;;3.50;;
66020;SDS011;52789;59.980;30.346;2022-07-10T17:43:34;4.85;;;4.07;;
66020;SDS011;52789;59.980;30.346;2022-07-10T17:46:00;3.30;;;3.00;;
66020;SDS011;52789;59.980;30.346;2022-07-10T17:48:25;4.43;;;3.17;;
66020;SDS011;52789;59.980;30.346;2022-07-10T17:50:51;3.08;;;2.70;;
66020;SDS011;52789;59.980;30.346;2022-07-10T17:53:17;4.80;;;3.80;;
66020;SDS011;52789;59.980;30.346;2022-07-10T17:55:43;3.55;;;3.10;;
66020;SDS011;52789;59.980;30.346;2022-07-10T17:58:08;3.67;;;3.38;;
66020;SDS011;52789;59.980;30.346;2022-07-10T18:00:34;4.65;;;3.03;;
66020;SDS011;52789;59.980;30.346;2022-07-10T18:02:59;4.57;;;3.47;;
66020;SDS011;52789;59.980;30.346;2022-07-10T18:05:25;4.82;;;3.28;;
66020;SDS011;52789;59.980;30.346;2022-07-10T18:07:50;5.32;;;4.50;;
66020;SDS011;52789;59.980;30.346;2022-07-10T18:10:16;4.15;;;3.75;;
66020;SDS011;52789;59.980;30.346;2022-07-10T18:12:41;5.40;;;3.42;;
66020;SDS011;52789;59.980;30.346;2022-07-10T18:15:07;4.25;;;3.30;;
66020;SDS011;52789;59.980;30.346;2022-07-10T18:17:33;4.18;;;3.78;;
66020;SDS011;52789;59.980;30.346;2022-07-10T18:20:02;6.25;;;3.97;;
66020;SDS011;52789;59.980;30.346;2022-07-10T18:22:30;4.22;;;3.83;;
66020;SDS011;52789;59.980;30.346;2022-07-10T18:24:55;4.53;;;3.92;;
66020;SDS011;52789;59.980;30.346;2022-07-10T18:27:21;5.40;;;3.85;;
66020;SDS011;52789;59.980;30.346;2022-07-10T18:29:47;8.10;;;4.68;;
66020;SDS011;52789;59.980;30.346;2022-07-10T18:32:16;4.68;;;4.20;;
66020;SDS011;52789;59.980;30.346;2022-07-10T18:34:42;4.75;;;4.10;;
66020;SDS011;52789;59.980;30.346;2022-07-10T18:37:08;7.53;;;4.63;;
66020;SDS011;52789;59.980;30.346;2022-07-10T18:39:33;6.95;;;4.80;;
66020;SDS011;52789;59.980;30.346;2022-07-10T18:41:59;6.03;;;5.30;;
66020;SDS011;52789;59.980;30.346;2022-07-10T18:44:26;6.20;;;5.00;;
66020;SDS011;52789;59.980;30.346;2022-07-10T18:46:51;5.57;;;4.07;;
66020;SDS011;52789;59.980;30.346;2022-07-10T18:49:17;5.80;;;3.88;;
66020;SDS011;52789;59.980;30.346;2022-07-10T18:51:43;6.38;;;4.50;;
66020;SDS011;52789;59.980;30.346;2022-07-10T18:54:08;5.45;;;4.22;;
66020;SDS011;52789;59.980;30.346;2022-07-10T18:56:35;6.40;;;4.55;;
66020;SDS011;52789;59.980;30.346;2022-07-10T18:59:01;9.85;;;5.70;;
66020;SDS011;52789;59.980;30.346;2022-07-10T19:01:26;9.20;;;5.20;;
66020;SDS011;52789;59.980;30.346;2022-07-10T19:03:54;8.68;;;5.70;;
66020;SDS011;52789;59.980;30.346;2022-07-10T19:06:20;6.18;;;5.20;;
66020;SDS011;52789;59.980;30.346;2022-07-10T19:08:47;6.25;;;5.32;;
66020;SDS011;52789;59.980;30.346;2022-07-10T19:11:12;6.97;;;5.20;;
66020;SDS011;52789;59.980;30.346;2022-07-10T19:13:38;7.30;;;5.55;;
66020;SDS011;52789;59.980;30.346;2022-07-10T19:16:04;5.13;;;4.63;;
66020;SDS011;52789;59.980;30.346;2022-07-10T19:18:30;7.90;;;6.10;;
66020;SDS011;52789;59.980;30.346;2022-07-10T19:21:01;8.20;;;5.35;;
66020;SDS011;52789;59.980;30.346;2022-07-10T19:23:26;6.60;;;5.70;;
66020;SDS011;52789;59.980;30.346;2022-07-10T19:25:52;6.35;;;5.75;;
66020;SDS011;52789;59.980;30.346;2022-07-10T19:28:19;5.70;;;5.15;;
66020;SDS011;52789;59.980;30.346;2022-07-10T19:30:45;12.55;;;6.38;;
66020;SDS011;52789;59.980;30.346;2022-07-10T19:33:11;7.32;;;6.72;;
66020;SDS011;52789;59.980;30.346;2022-07-10T19:35:36;7.30;;;5.53;;
66020;SDS011;52789;59.980;30.346;2022-07-10T19:38:02;10.23;;;6.60;;
66020;SDS011;52789;59.980;30.346;2022-07-10T19:40:27;7.15;;;6.50;;
66020;SDS011;52789;59.980;30.346;2022-07-10T19:42:55;9.73;;;7.73;;
66020;SDS011;52789;59.980;30.346;2022-07-10T19:45:21;11.02;;;6.90;;
66020;SDS011;52789;59.980;30.346;2022-07-10T19:47:48;10.43;;;8.73;;
66020;SDS011;52789;59.980;30.346;2022-07-10T19:50:17;11.57;;;8.00;;
66020;SDS011;52789;59.980;30.346;2022-07-10T19:52:42;14.02;;;8.77;;
66020;SDS011;52789;59.980;30.346;2022-07-10T19:55:08;9.68;;;8.68;;
66020;SDS011;52789;59.980;30.346;2022-07-10T19:57:33;10.63;;;8.43;;
66020;SDS011;52789;59.980;30.346;2022-07-10T20:00:01;12.52;;;9.73;;
66020;SDS011;52789;59.980;30.346;2022-07-10T20:02:29;10.75;;;9.55;;
66020;SDS011;52789;59.980;30.346;2022-07-10T20:04:54;11.88;;;10.55;;
66020;SDS011;52789;59.980;30.346;2022-07-10T20:07:20;15.77;;;9.98;;
66020;SDS011;52789;59.980;30.346;2022-07-10T20:09:45;13.77;;;10.75;;
66020;SDS011;52789;59.980;30.346;2022-07-10T20:12:11;14.52;;;10.30;;
66020;SDS011;52789;59.980;30.346;2022-07-10T20:14:36;19.23;;;11.73;;
66020;SDS011;52789;59.980;30.346;2022-07-10T20:17:02;19.08;;;11.88;;
66020;SDS011;52789;59.980;30.346;2022-07-10T20:19:28;24.08;;;12.07;;
66020;SDS011;52789;59.980;30.346;2022-07-10T20:21:56;25.48;;;13.10;;
66020;SDS011;52789;59.980;30.346;2022-07-10T20:24:21;24.00;;;12.75;;
66020;SDS011;52789;59.980;30.346;2022-07-10T20:26:47;26.10;;;12.35;;
66020;SDS011;52789;59.980;30.346;2022-07-10T20:29:13;45.88;;;13.15;;
66020;SDS011;52789;59.980;30.346;2022-07-10T20:32:04;39.42;;;14.98;;
66020;SDS011;52789;59.980;30.346;2022-07-10T20:34:30;27.55;;;14.35;;
66020;SDS011;52789;59.980;30.346;2022-07-10T20:36:55;37.50;;;15.32;;
66020;SDS011;52789;59.980;30.346;2022-07-10T20:39:39;34.10;;;16.10;;
66020;SDS011;52789;59.980;30.346;2022-07-10T20:42:04;33.53;;;14.63;;
66020;SDS011;52789;59.980;30.346;2022-07-10T20:44:31;26.95;;;14.43;;
66020;SDS011;52789;59.980;30.346;2022-07-10T20:46:57;29.45;;;15.13;;
66020;SDS011;52789;59.980;30.346;2022-07-10T20:49:22;34.60;;;19.50;;
66020;SDS011;52789;59.980;30.346;2022-07-10T20:51:48;30.17;;;15.48;;
66020;SDS011;52789;59.980;30.346;2022-07-10T20:54:13;37.45;;;16.00;;
66020;SDS011;52789;59.980;30.346;2022-07-10T20:56:38;36.92;;;15.05;;
66020;SDS011;52789;59.980;30.346;2022-07-10T20:59:04;33.22;;;14.88;;
66020;SDS011;52789;59.980;30.346;2022-07-10T21:01:29;36.55;;;14.50;;
66020;SDS011;52789;59.980;30.346;2022-07-10T21:03:56;33.72;;;15.45;;
66020;SDS011;52789;59.980;30.346;2022-07-10T21:06:21;40.45;;;15.88;;
66020;SDS011;52789;59.980;30.346;2022-07-10T21:08:48;29.00;;;13.85;;
66020;SDS011;52789;59.980;30.346;2022-07-10T21:11:14;36.95;;;15.55;;
66020;SDS011;52789;59.980;30.346;2022-07-10T21:13:39;29.63;;;12.27;;
66020;SDS011;52789;59.980;30.346;2022-07-10T21:16:05;29.20;;;14.90;;
66020;SDS011;52789;59.980;30.346;2022-07-10T21:18:31;29.90;;;13.73;;
66020;SDS011;52789;59.980;30.346;2022-07-10T21:20:57;27.83;;;14.70;;
66020;SDS011;52789;59.980;30.346;2022-07-10T21:23:22;27.33;;;15.77;;
66020;SDS011;52789;59.980;30.346;2022-07-10T21:25:48;29.15;;;13.75;;
66020;SDS011;52789;59.980;30.346;2022-07-10T21:28:13;24.63;;;13.45;;
66020;SDS011;52789;59.980;30.346;2022-07-10T21:30:39;27.85;;;13.30;;
66020;SDS011;52789;59.980;30.346;2022-07-10T21:33:09;20.50;;;12.90;;
66020;SDS011;52789;59.980;30.346;2022-07-10T21:35:34;24.80;;;14.43;;
66020;SDS011;52789;59.980;30.346;2022-07-10T21:38:01;26.27;;;14.48;;
66020;SDS011;52789;59.980;30.346;2022-07-10T21:40:27;25.88;;;14.30;;
66020;SDS011;52789;59.980;30.346;2022-07-10T21:42:55;32.00;;;13.95;;
66020;SDS011;52789;59.980;30.346;2022-07-10T21:45:20;20.85;;;12.93;;
66020;SDS011;52789;59.980;30.346;2022-07-10T21:47:46;24.67;;;12.88;;
66020;SDS011;52789;59.980;30.346;2022-07-10T21:50:12;25.52;;;13.73;;
66020;SDS011;52789;59.980;30.346;2022-07-10T21:52:38;24.50;;;15.05;;
66020;SDS011;52789;59.980;30.346;2022-07-10T21:55:03;20.95;;;13.27;;
66020;SDS011;52789;59.980;30.346;2022-07-10T21:57:29;23.58;;;13.20;;
66020;SDS011;52789;59.980;30.346;2022-07-10T21:59:57;19.08;;;13.30;;
66020;SDS011;52789;59.980;30.346;2022-07-10T22:02:22;17.15;;;13.95;;
66020;SDS011;52789;59.980;30.346;2022-07-10T22:04:50;15.57;;;12.63;;
66020;SDS011;52789;59.980;30.346;2022-07-10T22:07:16;21.48;;;13.52;;
66020;SDS011;52789;59.980;30.346;2022-07-10T22:09:42;22.30;;;14.43;;
66020;SDS011;52789;59.980;30.346;2022-07-10T22:12:07;13.95;;;11.50;;
66020;SDS011;52789;59.980;30.346;2022-07-10T22:14:33;20.15;;;13.60;;
66020;SDS011;52789;59.980;30.346;2022-07-10T22:16:58;17.15;;;12.90;;
66020;SDS011;52789;59.980;30.346;2022-07-10T22:19:26;18.73;;;12.20;;
66020;SDS011;52789;59.980;30.346;2022-07-10T22:21:52;14.20;;;12.77;;
66020;SDS011;52789;59.980;30.346;2022-07-10T22:24:18;15.73;;;12.57;;
66020;SDS011;52789;59.980;30.346;2022-07-10T22:26:43;15.35;;;12.88;;
66020;SDS011;52789;59.980;30.346;2022-07-10T22:29:09;15.52;;;13.27;;
66020;SDS011;52789;59.980;30.346;2022-07-10T22:31:34;17.55;;;12.15;;
66020;SDS011;52789;59.980;30.346;2022-07-10T22:34:00;17.00;;;13.25;;
66020;SDS011;52789;59.980;30.346;2022-07-10T22:36:26;16.65;;;12.45;;
66020;SDS011;52789;59.980;30.346;2022-07-10T22:38:52;16.45;;;12.65;;
66020;SDS011;52789;59.980;30.346;2022-07-10T22:41:18;17.80;;;12.95;;
66020;SDS011;52789;59.980;30.346;2022-07-10T22:43:44;14.82;;;13.30;;
66020;SDS011;52789;59.980;30.346;2022-07-10T22:46:10;15.95;;;13.93;;
66020;SDS011;52789;59.980;30.346;2022-07-10T22:48:35;16.70;;;13.27;;
66020;SDS011;52789;59.980;30.346;2022-07-10T22:51:01;18.08;;;16.23;;
66020;SDS011;52789;59.980;30.346;2022-07-10T22:53:27;17.33;;;15.68;;
66020;SDS011;52789;59.980;30.346;2022-07-10T22:55:53;22.13;;;17.05;;
66020;SDS011;52789;59.980;30.346;2022-07-10T22:58:19;20.88;;;17.17;;
66020;SDS011;52789;59.980;30.346;2022-07-10T23:00:44;17.33;;;15.68;;
66020;SDS011;52789;59.980;30.346;2022-07-10T23:03:10;19.23;;;17.40;;
66020;SDS011;52789;59.980;30.346;2022-07-10T23:05:37;19.13;;;17.13;;
66020;SDS011;52789;59.980;30.346;2022-07-10T23:08:02;18.73;;;16.75;;
66020;SDS011;52789;59.980;30.346;2022-07-10T23:10:29;20.13;;;17.35;;
66020;SDS011;52789;59.980;30.346;2022-07-10T23:12:54;18.92;;;17.05;;
66020;SDS011;52789;59.980;30.346;2022-07-10T23:15:20;16.45;;;14.50;;
66020;SDS011;52789;59.980;30.346;2022-07-10T23:17:46;18.53;;;16.67;;
66020;SDS011;52789;59.980;30.346;2022-07-10T23:20:13;18.87;;;16.90;;
66020;SDS011;52789;59.980;30.346;2022-07-10T23:22:39;17.57;;;15.90;;
66020;SDS011;52789;59.980;30.346;2022-07-10T23:25:05;16.13;;;14.73;;
66020;SDS011;52789;59.980;30.346;2022-07-10T23:27:32;17.67;;;15.87;;
66020;SDS011;52789;59.980;30.346;2022-07-10T23:29:57;17.98;;;14.48;;
66020;SDS011;52789;59.980;30.346;2022-07-10T23:32:23;17.42;;;15.93;;
66020;SDS011;52789;59.980;30.346;2022-07-10T23:34:54;16.53;;;14.93;;
66020;SDS011;52789;59.980;30.346;2022-07-10T23:37:19;17.50;;;15.77;;
66020;SDS011;52789;59.980;30.346;2022-07-10T23:39:46;15.87;;;14.27;;
66020;SDS011;52789;59.980;30.346;2022-07-10T23:42:12;18.48;;;16.17;;
66020;SDS011;52789;59.980;30.346;2022-07-10T23:44:38;16.73;;;14.83;;
66020;SDS011;52789;59.980;30.346;2022-07-10T23:47:04;15.10;;;13.67;;
66020;SDS011;52789;59.980;30.346;2022-07-10T23:49:30;15.13;;;13.73;;
66020;SDS011;52789;59.980;30.346;2022-07-10T23:52:14;15.27;;;13.77;;
66020;SDS011;52789;59.980;30.346;2022-07-10T23:54:40;15.52;;;13.93;;
66020;SDS011;52789;59.980;30.346;2022-07-10T23:57:10;16.67;;;13.85;;
66020;SDS011;52789;59.980;30.346;2022-07-10T23:59:37;16.23;;;14.70;;
